sensor_id;sensor_type;location;lat;lon;timestamp;P1;durP1;ratioP1;P2;durP2;ratioP2
23539;SDS011;11947;50.810;4.394;2023-07-29T00:01:35;3.45;;;1.95;;
23539;SDS011;11947;50.810;4.394;2023-07-29T00:04:02;4.32;;;2.35;;
23539;SDS011;11947;50.810;4.394;2023-07-29T00:06:28;5.07;;;2.22;;
23539;SDS011;11947;50.810;4.394;2023-07-29T00:08:55;5.10;;;1.90;;
23539;SDS011;11947;50.810;4.394;2023-07-29T00:11:21;2.83;;;2.00;;
23539;SDS011;11947;50.810;4.394;2023-07-29T00:13:52;2.10;;;1.80;;
23539;SDS011;11947;50.810;4.394;2023-07-29T00:16:19;6.60;;;1.88;;
23539;SDS011;11947;50.810;4.394;2023-07-29T00:24:01;4.40;;;1.77;;
23539;SDS011;11947;50.810;4.394;2023-07-29T00:26:29;4.03;;;1.55;;
23539;SDS011;11947;50.810;4.394;2023-07-29T00:28:55;3.58;;;1.65;;
23539;SDS011;11947;50.810;4.394;2023-07-29T00:31:28;4.13;;;1.90;;
23539;SDS011;11947;50.810;4.394;2023-07-29T00:33:55;3.80;;;1.73;;
23539;SDS011;11947;50.810;4.394;2023-07-29T00:38:58;2.58;;;1.70;;
23539;SDS011;11947;50.810;4.394;2023-07-29T00:41:24;3.47;;;1.90;;
23539;SDS011;11947;50.810;4.394;2023-07-29T00:43:51;3.17;;;1.83;;
23539;SDS011;11947;50.810;4.394;2023-07-29T00:49:23;5.90;;;1.75;;
23539;SDS011;11947;50.810;4.394;2023-07-29T00:51:54;3.88;;;1.65;;
23539;SDS011;11947;50.810;4.394;2023-07-29T00:54:20;3.67;;;2.10;;
23539;SDS011;11947;50.810;4.394;2023-07-29T00:56:47;5.65;;;1.92;;
23539;SDS011;11947;50.810;4.394;2023-07-29T01:01:48;5.18;;;2.05;;
23539;SDS011;11947;50.810;4.394;2023-07-29T01:04:14;3.55;;;1.80;;
23539;SDS011;11947;50.810;4.394;2023-07-29T01:06:41;2.72;;;1.73;;
23539;SDS011;11947;50.810;4.394;2023-07-29T01:12:50;4.05;;;2.10;;
23539;SDS011;11947;50.810;4.394;2023-07-29T01:15:26;4.55;;;1.95;;
23539;SDS011;11947;50.810;4.394;2023-07-29T01:18:10;3.95;;;2.10;;
23539;SDS011;11947;50.810;4.394;2023-07-29T01:20:42;3.83;;;2.03;;
23539;SDS011;11947;50.810;4.394;2023-07-29T01:23:10;3.28;;;2.05;;
23539;SDS011;11947;50.810;4.394;2023-07-29T01:28:04;3.75;;;2.20;;
23539;SDS011;11947;50.810;4.394;2023-07-29T01:30:31;3.42;;;1.80;;
23539;SDS011;11947;50.810;4.394;2023-07-29T01:36:07;3.13;;;2.10;;
23539;SDS011;11947;50.810;4.394;2023-07-29T01:38:48;5.15;;;2.17;;
23539;SDS011;11947;50.810;4.394;2023-07-29T01:41:16;6.35;;;2.00;;
23539;SDS011;11947;50.810;4.394;2023-07-29T01:43:44;5.13;;;2.15;;
23539;SDS011;11947;50.810;4.394;2023-07-29T01:46:11;3.45;;;2.00;;
23539;SDS011;11947;50.810;4.394;2023-07-29T01:48:38;7.82;;;2.10;;
23539;SDS011;11947;50.810;4.394;2023-07-29T01:51:05;3.80;;;2.22;;
23539;SDS011;11947;50.810;4.394;2023-07-29T01:53:37;7.75;;;2.22;;
23539;SDS011;11947;50.810;4.394;2023-07-29T01:56:02;5.60;;;2.30;;
23539;SDS011;11947;50.810;4.394;2023-07-29T01:58:32;4.28;;;2.20;;
23539;SDS011;11947;50.810;4.394;2023-07-29T02:01:00;4.53;;;2.05;;
23539;SDS011;11947;50.810;4.394;2023-07-29T02:03:29;4.40;;;2.20;;
23539;SDS011;11947;50.810;4.394;2023-07-29T02:05:56;4.97;;;2.38;;
23539;SDS011;11947;50.810;4.394;2023-07-29T02:08:26;4.82;;;2.30;;
23539;SDS011;11947;50.810;4.394;2023-07-29T02:10:53;6.55;;;2.53;;
23539;SDS011;11947;50.810;4.394;2023-07-29T02:13:21;4.47;;;2.15;;
23539;SDS011;11947;50.810;4.394;2023-07-29T02:15:57;9.55;;;2.20;;
23539;SDS011;11947;50.810;4.394;2023-07-29T02:18:32;3.65;;;2.33;;
23539;SDS011;11947;50.810;4.394;2023-07-29T02:21:06;4.30;;;2.28;;
23539;SDS011;11947;50.810;4.394;2023-07-29T02:23:31;5.65;;;2.63;;
23539;SDS011;11947;50.810;4.394;2023-07-29T02:25:59;6.20;;;2.38;;
23539;SDS011;11947;50.810;4.394;2023-07-29T02:41:22;6.18;;;2.22;;
23539;SDS011;11947;50.810;4.394;2023-07-29T02:43:48;4.63;;;2.60;;
23539;SDS011;11947;50.810;4.394;2023-07-29T02:46:14;5.97;;;2.50;;
23539;SDS011;11947;50.810;4.394;2023-07-29T03:06:50;4.22;;;2.25;;
23539;SDS011;11947;50.810;4.394;2023-07-29T03:19:38;5.95;;;2.30;;
23539;SDS011;11947;50.810;4.394;2023-07-29T03:22:04;3.90;;;2.42;;
23539;SDS011;11947;50.810;4.394;2023-07-29T03:27:06;5.18;;;2.30;;
23539;SDS011;11947;50.810;4.394;2023-07-29T03:29:33;4.82;;;2.33;;
23539;SDS011;11947;50.810;4.394;2023-07-29T03:31:58;3.38;;;2.15;;
23539;SDS011;11947;50.810;4.394;2023-07-29T03:34:24;4.70;;;2.20;;
23539;SDS011;11947;50.810;4.394;2023-07-29T03:36:50;4.65;;;2.20;;
23539;SDS011;11947;50.810;4.394;2023-07-29T03:39:18;3.67;;;2.05;;
23539;SDS011;11947;50.810;4.394;2023-07-29T03:41:43;4.75;;;2.28;;
23539;SDS011;11947;50.810;4.394;2023-07-29T03:44:10;3.97;;;2.17;;
23539;SDS011;11947;50.810;4.394;2023-07-29T03:46:36;3.40;;;2.40;;
23539;SDS011;11947;50.810;4.394;2023-07-29T03:49:02;5.88;;;2.50;;
23539;SDS011;11947;50.810;4.394;2023-07-29T03:51:28;4.93;;;2.10;;
23539;SDS011;11947;50.810;4.394;2023-07-29T03:53:54;4.78;;;2.08;;
23539;SDS011;11947;50.810;4.394;2023-07-29T03:56:20;4.22;;;2.00;;
23539;SDS011;11947;50.810;4.394;2023-07-29T03:58:52;6.13;;;2.20;;
23539;SDS011;11947;50.810;4.394;2023-07-29T04:01:18;5.22;;;2.40;;
23539;SDS011;11947;50.810;4.394;2023-07-29T04:03:44;3.65;;;2.20;;
23539;SDS011;11947;50.810;4.394;2023-07-29T04:06:11;3.38;;;2.08;;
23539;SDS011;11947;50.810;4.394;2023-07-29T04:08:38;3.38;;;2.20;;
23539;SDS011;11947;50.810;4.394;2023-07-29T04:11:04;3.95;;;2.33;;
23539;SDS011;11947;50.810;4.394;2023-07-29T04:13:31;3.38;;;2.10;;
23539;SDS011;11947;50.810;4.394;2023-07-29T04:15:57;5.38;;;2.40;;
23539;SDS011;11947;50.810;4.394;2023-07-29T04:18:24;3.72;;;2.28;;
23539;SDS011;11947;50.810;4.394;2023-07-29T04:20:49;4.80;;;2.50;;
23539;SDS011;11947;50.810;4.394;2023-07-29T04:23:15;6.25;;;2.20;;
23539;SDS011;11947;50.810;4.394;2023-07-29T04:25:40;4.88;;;2.50;;
23539;SDS011;11947;50.810;4.394;2023-07-29T04:28:06;3.83;;;2.25;;
23539;SDS011;11947;50.810;4.394;2023-07-29T04:30:32;4.97;;;2.10;;
23539;SDS011;11947;50.810;4.394;2023-07-29T04:32:59;4.70;;;2.45;;
23539;SDS011;11947;50.810;4.394;2023-07-29T04:35:25;7.13;;;2.58;;
23539;SDS011;11947;50.810;4.394;2023-07-29T04:37:52;3.05;;;2.20;;
23539;SDS011;11947;50.810;4.394;2023-07-29T04:40:28;3.08;;;1.98;;
23539;SDS011;11947;50.810;4.394;2023-07-29T04:42:54;4.97;;;2.25;;
23539;SDS011;11947;50.810;4.394;2023-07-29T04:45:19;5.75;;;2.05;;
23539;SDS011;11947;50.810;4.394;2023-07-29T04:47:46;4.07;;;2.25;;
23539;SDS011;11947;50.810;4.394;2023-07-29T04:50:14;3.95;;;2.38;;
23539;SDS011;11947;50.810;4.394;2023-07-29T04:52:40;2.90;;;2.15;;
23539;SDS011;11947;50.810;4.394;2023-07-29T04:55:06;3.63;;;1.90;;
23539;SDS011;11947;50.810;4.394;2023-07-29T04:57:31;5.10;;;2.40;;
23539;SDS011;11947;50.810;4.394;2023-07-29T04:59:58;4.72;;;1.92;;
23539;SDS011;11947;50.810;4.394;2023-07-29T05:05:01;3.83;;;2.50;;
23539;SDS011;11947;50.810;4.394;2023-07-29T05:07:29;4.28;;;1.88;;
23539;SDS011;11947;50.810;4.394;2023-07-29T05:09:55;5.22;;;2.15;;
23539;SDS011;11947;50.810;4.394;2023-07-29T05:12:20;6.88;;;2.10;;
23539;SDS011;11947;50.810;4.394;2023-07-29T05:14:47;3.80;;;2.33;;
23539;SDS011;11947;50.810;4.394;2023-07-29T05:17:13;5.78;;;2.10;;
23539;SDS011;11947;50.810;4.394;2023-07-29T05:19:39;4.18;;;1.95;;
23539;SDS011;11947;50.810;4.394;2023-07-29T05:22:05;3.78;;;2.17;;
23539;SDS011;11947;50.810;4.394;2023-07-29T05:24:33;3.22;;;2.08;;
23539;SDS011;11947;50.810;4.394;2023-07-29T05:26:59;6.28;;;1.85;;
23539;SDS011;11947;50.810;4.394;2023-07-29T05:29:24;2.08;;;1.65;;
23539;SDS011;11947;50.810;4.394;2023-07-29T05:31:50;5.43;;;1.85;;
23539;SDS011;11947;50.810;4.394;2023-07-29T05:34:16;7.38;;;2.28;;
23539;SDS011;11947;50.810;4.394;2023-07-29T05:36:44;2.55;;;1.88;;
23539;SDS011;11947;50.810;4.394;2023-07-29T05:39:11;4.20;;;2.00;;
23539;SDS011;11947;50.810;4.394;2023-07-29T05:41:37;5.75;;;1.90;;
23539;SDS011;11947;50.810;4.394;2023-07-29T05:44:03;2.30;;;1.70;;
23539;SDS011;11947;50.810;4.394;2023-07-29T05:46:30;2.42;;;1.50;;
23539;SDS011;11947;50.810;4.394;2023-07-29T05:48:56;4.18;;;1.80;;
23539;SDS011;11947;50.810;4.394;2023-07-29T05:51:22;3.70;;;2.13;;
23539;SDS011;11947;50.810;4.394;2023-07-29T05:53:50;4.38;;;1.90;;
23539;SDS011;11947;50.810;4.394;2023-07-29T05:56:18;5.55;;;1.80;;
23539;SDS011;11947;50.810;4.394;2023-07-29T05:58:44;3.80;;;1.60;;
23539;SDS011;11947;50.810;4.394;2023-07-29T06:01:13;3.67;;;1.42;;
23539;SDS011;11947;50.810;4.394;2023-07-29T06:03:40;6.03;;;1.80;;
23539;SDS011;11947;50.810;4.394;2023-07-29T06:06:09;1.73;;;1.40;;
23539;SDS011;11947;50.810;4.394;2023-07-29T06:08:35;4.38;;;1.67;;
23539;SDS011;11947;50.810;4.394;2023-07-29T06:11:01;2.33;;;1.48;;
23539;SDS011;11947;50.810;4.394;2023-07-29T06:13:31;3.97;;;1.80;;
23539;SDS011;11947;50.810;4.394;2023-07-29T06:15:59;4.13;;;1.45;;
23539;SDS011;11947;50.810;4.394;2023-07-29T06:18:30;3.78;;;1.77;;
23539;SDS011;11947;50.810;4.394;2023-07-29T06:20:57;3.42;;;1.60;;
23539;SDS011;11947;50.810;4.394;2023-07-29T06:23:28;3.50;;;1.50;;
23539;SDS011;11947;50.810;4.394;2023-07-29T06:25:54;2.10;;;1.63;;
23539;SDS011;11947;50.810;4.394;2023-07-29T06:28:20;3.38;;;1.70;;
23539;SDS011;11947;50.810;4.394;2023-07-29T06:30:45;3.35;;;1.55;;
23539;SDS011;11947;50.810;4.394;2023-07-29T06:33:11;4.88;;;1.70;;
23539;SDS011;11947;50.810;4.394;2023-07-29T06:35:37;2.80;;;1.70;;
23539;SDS011;11947;50.810;4.394;2023-07-29T06:38:04;2.13;;;1.50;;
23539;SDS011;11947;50.810;4.394;2023-07-29T06:40:35;2.78;;;1.70;;
23539;SDS011;11947;50.810;4.394;2023-07-29T06:43:02;2.97;;;1.35;;
23539;SDS011;11947;50.810;4.394;2023-07-29T06:45:28;2.92;;;1.58;;
23539;SDS011;11947;50.810;4.394;2023-07-29T06:47:58;3.83;;;1.50;;
23539;SDS011;11947;50.810;4.394;2023-07-29T06:50:24;3.22;;;1.48;;
23539;SDS011;11947;50.810;4.394;2023-07-29T06:52:52;2.70;;;1.63;;
23539;SDS011;11947;50.810;4.394;2023-07-29T06:55:21;2.33;;;1.50;;
23539;SDS011;11947;50.810;4.394;2023-07-29T06:57:46;1.73;;;1.30;;
23539;SDS011;11947;50.810;4.394;2023-07-29T07:00:17;4.22;;;1.65;;
23539;SDS011;11947;50.810;4.394;2023-07-29T07:02:43;2.80;;;1.60;;
23539;SDS011;11947;50.810;4.394;2023-07-29T07:05:08;2.67;;;1.73;;
23539;SDS011;11947;50.810;4.394;2023-07-29T07:10:08;6.90;;;1.98;;
23539;SDS011;11947;50.810;4.394;2023-07-29T07:12:35;2.38;;;1.58;;
23539;SDS011;11947;50.810;4.394;2023-07-29T07:15:04;2.38;;;1.58;;
23539;SDS011;11947;50.810;4.394;2023-07-29T07:17:31;2.95;;;1.42;;
23539;SDS011;11947;50.810;4.394;2023-07-29T07:19:57;3.00;;;1.67;;
23539;SDS011;11947;50.810;4.394;2023-07-29T07:24:59;2.60;;;1.30;;
23539;SDS011;11947;50.810;4.394;2023-07-29T07:27:26;4.00;;;1.55;;
23539;SDS011;11947;50.810;4.394;2023-07-29T07:29:53;1.90;;;1.20;;
23539;SDS011;11947;50.810;4.394;2023-07-29T07:32:19;4.45;;;1.60;;
23539;SDS011;11947;50.810;4.394;2023-07-29T07:34:45;6.40;;;1.80;;
23539;SDS011;11947;50.810;4.394;2023-07-29T07:37:11;2.35;;;1.50;;
23539;SDS011;11947;50.810;4.394;2023-07-29T07:39:37;4.35;;;1.60;;
23539;SDS011;11947;50.810;4.394;2023-07-29T07:42:04;7.65;;;1.80;;
23539;SDS011;11947;50.810;4.394;2023-07-29T07:44:30;3.90;;;1.55;;
23539;SDS011;11947;50.810;4.394;2023-07-29T07:46:58;4.90;;;1.80;;
23539;SDS011;11947;50.810;4.394;2023-07-29T07:49:26;4.18;;;1.75;;
23539;SDS011;11947;50.810;4.394;2023-07-29T07:51:52;3.42;;;1.50;;
23539;SDS011;11947;50.810;4.394;2023-07-29T07:54:20;3.22;;;1.65;;
23539;SDS011;11947;50.810;4.394;2023-07-29T07:56:45;5.22;;;1.77;;
23539;SDS011;11947;50.810;4.394;2023-07-29T07:59:11;3.28;;;1.60;;
23539;SDS011;11947;50.810;4.394;2023-07-29T08:01:40;3.47;;;2.03;;
23539;SDS011;11947;50.810;4.394;2023-07-29T08:04:13;3.78;;;1.60;;
23539;SDS011;11947;50.810;4.394;2023-07-29T08:06:40;2.95;;;1.70;;
23539;SDS011;11947;50.810;4.394;2023-07-29T08:09:09;4.63;;;1.60;;
23539;SDS011;11947;50.810;4.394;2023-07-29T08:11:35;2.28;;;1.63;;
23539;SDS011;11947;50.810;4.394;2023-07-29T08:14:01;2.25;;;1.60;;
23539;SDS011;11947;50.810;4.394;2023-07-29T08:16:26;2.03;;;1.48;;
23539;SDS011;11947;50.810;4.394;2023-07-29T08:18:55;2.60;;;1.55;;
23539;SDS011;11947;50.810;4.394;2023-07-29T08:21:21;1.55;;;1.45;;
23539;SDS011;11947;50.810;4.394;2023-07-29T08:23:47;4.20;;;1.70;;
23539;SDS011;11947;50.810;4.394;2023-07-29T08:26:12;5.05;;;1.80;;
23539;SDS011;11947;50.810;4.394;2023-07-29T08:28:39;2.35;;;1.60;;
23539;SDS011;11947;50.810;4.394;2023-07-29T08:31:10;4.07;;;1.70;;
23539;SDS011;11947;50.810;4.394;2023-07-29T08:33:37;2.05;;;1.40;;
23539;SDS011;11947;50.810;4.394;2023-07-29T08:36:03;6.55;;;1.83;;
23539;SDS011;11947;50.810;4.394;2023-07-29T08:38:30;1.90;;;1.40;;
23539;SDS011;11947;50.810;4.394;2023-07-29T08:41:10;1.67;;;1.30;;
23539;SDS011;11947;50.810;4.394;2023-07-29T08:44:30;2.13;;;1.55;;
23539;SDS011;11947;50.810;4.394;2023-07-29T08:46:54;2.72;;;1.77;;
23539;SDS011;11947;50.810;4.394;2023-07-29T08:49:44;5.22;;;1.55;;
23539;SDS011;11947;50.810;4.394;2023-07-29T08:52:11;2.65;;;1.90;;
23539;SDS011;11947;50.810;4.394;2023-07-29T08:54:39;3.00;;;1.67;;
23539;SDS011;11947;50.810;4.394;2023-07-29T08:57:06;6.20;;;1.85;;
23539;SDS011;11947;50.810;4.394;2023-07-29T08:59:35;2.38;;;1.55;;
23539;SDS011;11947;50.810;4.394;2023-07-29T09:02:02;4.57;;;2.70;;
23539;SDS011;11947;50.810;4.394;2023-07-29T09:04:28;2.53;;;1.65;;
23539;SDS011;11947;50.810;4.394;2023-07-29T09:06:55;2.45;;;1.60;;
23539;SDS011;11947;50.810;4.394;2023-07-29T09:09:24;4.07;;;1.65;;
23539;SDS011;11947;50.810;4.394;2023-07-29T09:11:57;4.63;;;1.83;;
23539;SDS011;11947;50.810;4.394;2023-07-29T09:17:08;2.08;;;1.60;;
23539;SDS011;11947;50.810;4.394;2023-07-29T09:19:35;2.72;;;1.92;;
23539;SDS011;11947;50.810;4.394;2023-07-29T09:24:37;3.40;;;2.00;;
23539;SDS011;11947;50.810;4.394;2023-07-29T09:27:03;2.10;;;1.63;;
23539;SDS011;11947;50.810;4.394;2023-07-29T09:29:29;1.90;;;1.65;;
23539;SDS011;11947;50.810;4.394;2023-07-29T09:34:31;3.97;;;1.73;;
23539;SDS011;11947;50.810;4.394;2023-07-29T09:37:22;4.25;;;1.80;;
23539;SDS011;11947;50.810;4.394;2023-07-29T09:39:52;3.92;;;1.90;;
23539;SDS011;11947;50.810;4.394;2023-07-29T09:47:32;2.17;;;1.73;;
23539;SDS011;11947;50.810;4.394;2023-07-29T09:49:57;4.10;;;1.90;;
23539;SDS011;11947;50.810;4.394;2023-07-29T09:52:25;3.45;;;2.00;;
23539;SDS011;11947;50.810;4.394;2023-07-29T09:55:32;2.83;;;1.65;;
23539;SDS011;11947;50.810;4.394;2023-07-29T09:58:28;3.55;;;1.90;;
23539;SDS011;11947;50.810;4.394;2023-07-29T10:04:42;3.47;;;2.20;;
23539;SDS011;11947;50.810;4.394;2023-07-29T10:07:37;2.25;;;1.90;;
23539;SDS011;11947;50.810;4.394;2023-07-29T10:10:06;3.85;;;1.95;;
23539;SDS011;11947;50.810;4.394;2023-07-29T10:12:40;3.58;;;2.22;;
23539;SDS011;11947;50.810;4.394;2023-07-29T10:18:37;2.97;;;1.90;;
23539;SDS011;11947;50.810;4.394;2023-07-29T10:21:07;3.75;;;1.90;;
23539;SDS011;11947;50.810;4.394;2023-07-29T10:23:47;3.92;;;2.40;;
23539;SDS011;11947;50.810;4.394;2023-07-29T10:26:18;6.85;;;2.33;;
23539;SDS011;11947;50.810;4.394;2023-07-29T10:28:50;5.45;;;2.40;;
23539;SDS011;11947;50.810;4.394;2023-07-29T10:31:18;3.55;;;2.50;;
23539;SDS011;11947;50.810;4.394;2023-07-29T10:33:46;5.65;;;2.40;;
23539;SDS011;11947;50.810;4.394;2023-07-29T10:36:11;3.95;;;2.67;;
23539;SDS011;11947;50.810;4.394;2023-07-29T10:38:38;5.95;;;2.85;;
23539;SDS011;11947;50.810;4.394;2023-07-29T10:41:05;4.97;;;2.90;;
23539;SDS011;11947;50.810;4.394;2023-07-29T10:43:37;3.22;;;2.80;;
23539;SDS011;11947;50.810;4.394;2023-07-29T10:46:17;3.53;;;2.55;;
23539;SDS011;11947;50.810;4.394;2023-07-29T10:51:28;3.97;;;2.58;;
23539;SDS011;11947;50.810;4.394;2023-07-29T10:54:00;3.65;;;2.42;;
23539;SDS011;11947;50.810;4.394;2023-07-29T10:56:28;7.07;;;2.70;;
23539;SDS011;11947;50.810;4.394;2023-07-29T11:01:52;4.63;;;3.00;;
23539;SDS011;11947;50.810;4.394;2023-07-29T11:04:28;5.63;;;3.05;;
23539;SDS011;11947;50.810;4.394;2023-07-29T11:07:18;3.55;;;2.90;;
23539;SDS011;11947;50.810;4.394;2023-07-29T11:17:43;4.60;;;3.03;;
23539;SDS011;11947;50.810;4.394;2023-07-29T11:20:17;6.13;;;3.08;;
23539;SDS011;11947;50.810;4.394;2023-07-29T11:22:44;3.85;;;3.00;;
23539;SDS011;11947;50.810;4.394;2023-07-29T11:25:11;3.33;;;2.75;;
23539;SDS011;11947;50.810;4.394;2023-07-29T11:30:28;4.75;;;3.00;;
23539;SDS011;11947;50.810;4.394;2023-07-29T11:33:28;4.32;;;3.25;;
23539;SDS011;11947;50.810;4.394;2023-07-29T11:35:59;4.13;;;2.97;;
23539;SDS011;11947;50.810;4.394;2023-07-29T11:38:26;5.88;;;3.22;;
23539;SDS011;11947;50.810;4.394;2023-07-29T11:41:08;5.03;;;3.22;;
23539;SDS011;11947;50.810;4.394;2023-07-29T11:44:21;3.55;;;2.70;;
23539;SDS011;11947;50.810;4.394;2023-07-29T11:47:01;3.60;;;2.75;;
23539;SDS011;11947;50.810;4.394;2023-07-29T11:50:10;4.85;;;2.50;;
23539;SDS011;11947;50.810;4.394;2023-07-29T11:55:23;4.43;;;2.50;;
23539;SDS011;11947;50.810;4.394;2023-07-29T11:57:51;2.75;;;2.13;;
23539;SDS011;11947;50.810;4.394;2023-07-29T12:00:18;2.78;;;2.53;;
23539;SDS011;11947;50.810;4.394;2023-07-29T12:02:43;2.58;;;2.30;;
23539;SDS011;11947;50.810;4.394;2023-07-29T12:05:10;3.08;;;2.72;;
23539;SDS011;11947;50.810;4.394;2023-07-29T12:07:38;4.05;;;2.28;;
23539;SDS011;11947;50.810;4.394;2023-07-29T12:10:04;3.42;;;2.63;;
23539;SDS011;11947;50.810;4.394;2023-07-29T12:12:31;3.83;;;2.38;;
23539;SDS011;11947;50.810;4.394;2023-07-29T12:14:57;8.20;;;3.83;;
23539;SDS011;11947;50.810;4.394;2023-07-29T12:17:23;5.97;;;2.95;;
23539;SDS011;11947;50.810;4.394;2023-07-29T12:19:56;4.65;;;3.40;;
23539;SDS011;11947;50.810;4.394;2023-07-29T12:22:38;7.35;;;3.30;;
23539;SDS011;11947;50.810;4.394;2023-07-29T12:59:51;4.50;;;2.58;;
23539;SDS011;11947;50.810;4.394;2023-07-29T13:02:23;4.28;;;3.05;;
23539;SDS011;11947;50.810;4.394;2023-07-29T13:04:49;5.63;;;2.67;;
23539;SDS011;11947;50.810;4.394;2023-07-29T13:07:28;3.42;;;2.80;;
23539;SDS011;11947;50.810;4.394;2023-07-29T13:10:06;4.68;;;2.58;;
23539;SDS011;11947;50.810;4.394;2023-07-29T13:16:17;4.95;;;2.90;;
23539;SDS011;11947;50.810;4.394;2023-07-29T13:22:16;4.57;;;2.80;;
23539;SDS011;11947;50.810;4.394;2023-07-29T13:24:50;2.92;;;2.63;;
23539;SDS011;11947;50.810;4.394;2023-07-29T13:27:16;3.40;;;2.80;;
23539;SDS011;11947;50.810;4.394;2023-07-29T13:29:42;3.20;;;2.90;;
23539;SDS011;11947;50.810;4.394;2023-07-29T13:32:08;3.08;;;2.78;;
23539;SDS011;11947;50.810;4.394;2023-07-29T13:34:34;3.85;;;2.90;;
23539;SDS011;11947;50.810;4.394;2023-07-29T13:37:00;2.90;;;2.58;;
23539;SDS011;11947;50.810;4.394;2023-07-29T13:39:25;6.72;;;2.92;;
23539;SDS011;11947;50.810;4.394;2023-07-29T13:41:53;2.60;;;2.40;;
23539;SDS011;11947;50.810;4.394;2023-07-29T13:44:19;3.45;;;2.05;;
23539;SDS011;11947;50.810;4.394;2023-07-29T13:46:46;2.60;;;2.40;;
23539;SDS011;11947;50.810;4.394;2023-07-29T13:49:18;2.33;;;2.13;;
23539;SDS011;11947;50.810;4.394;2023-07-29T13:51:44;2.13;;;2.03;;
23539;SDS011;11947;50.810;4.394;2023-07-29T13:54:14;2.08;;;1.98;;
23539;SDS011;11947;50.810;4.394;2023-07-29T13:59:23;1.90;;;1.80;;
23539;SDS011;11947;50.810;4.394;2023-07-29T14:01:50;2.65;;;2.00;;
23539;SDS011;11947;50.810;4.394;2023-07-29T14:04:22;2.58;;;2.05;;
23539;SDS011;11947;50.810;4.394;2023-07-29T14:06:49;2.10;;;1.90;;
23539;SDS011;11947;50.810;4.394;2023-07-29T14:09:14;2.17;;;1.98;;
23539;SDS011;11947;50.810;4.394;2023-07-29T14:11:40;2.00;;;1.80;;
23539;SDS011;11947;50.810;4.394;2023-07-29T14:14:12;2.15;;;1.88;;
23539;SDS011;11947;50.810;4.394;2023-07-29T14:16:40;1.90;;;1.80;;
23539;SDS011;11947;50.810;4.394;2023-07-29T14:19:06;3.25;;;2.00;;
23539;SDS011;11947;50.810;4.394;2023-07-29T14:21:31;2.78;;;2.00;;
23539;SDS011;11947;50.810;4.394;2023-07-29T14:23:57;1.88;;;1.60;;
23539;SDS011;11947;50.810;4.394;2023-07-29T14:26:23;5.75;;;1.88;;
23539;SDS011;11947;50.810;4.394;2023-07-29T14:28:48;2.90;;;1.90;;
23539;SDS011;11947;50.810;4.394;2023-07-29T14:31:15;1.90;;;1.67;;
23539;SDS011;11947;50.810;4.394;2023-07-29T14:33:42;2.63;;;1.88;;
23539;SDS011;11947;50.810;4.394;2023-07-29T14:36:08;2.65;;;1.67;;
23539;SDS011;11947;50.810;4.394;2023-07-29T14:38:34;2.17;;;1.73;;
23539;SDS011;11947;50.810;4.394;2023-07-29T14:41:00;5.40;;;1.65;;
23539;SDS011;11947;50.810;4.394;2023-07-29T14:43:26;2.67;;;1.45;;
23539;SDS011;11947;50.810;4.394;2023-07-29T14:45:52;9.95;;;4.60;;
23539;SDS011;11947;50.810;4.394;2023-07-29T14:48:17;5.22;;;2.15;;
23539;SDS011;11947;50.810;4.394;2023-07-29T14:50:43;5.47;;;3.42;;
23539;SDS011;11947;50.810;4.394;2023-07-29T14:53:09;5.03;;;2.55;;
23539;SDS011;11947;50.810;4.394;2023-07-29T14:55:36;5.50;;;3.35;;
23539;SDS011;11947;50.810;4.394;2023-07-29T14:58:02;3.85;;;2.00;;
23539;SDS011;11947;50.810;4.394;2023-07-29T15:00:28;6.18;;;2.65;;
23539;SDS011;11947;50.810;4.394;2023-07-29T15:02:54;3.67;;;2.10;;
23539;SDS011;11947;50.810;4.394;2023-07-29T15:05:19;3.85;;;1.95;;
23539;SDS011;11947;50.810;4.394;2023-07-29T15:07:45;4.45;;;2.03;;
23539;SDS011;11947;50.810;4.394;2023-07-29T15:10:13;2.90;;;1.80;;
23539;SDS011;11947;50.810;4.394;2023-07-29T15:12:39;1.98;;;1.65;;
23539;SDS011;11947;50.810;4.394;2023-07-29T15:15:05;2.17;;;1.90;;
23539;SDS011;11947;50.810;4.394;2023-07-29T15:17:33;2.38;;;1.60;;
23539;SDS011;11947;50.810;4.394;2023-07-29T15:19:59;2.10;;;1.70;;
23539;SDS011;11947;50.810;4.394;2023-07-29T15:22:24;1.70;;;1.60;;
23539;SDS011;11947;50.810;4.394;2023-07-29T15:24:50;7.28;;;2.00;;
23539;SDS011;11947;50.810;4.394;2023-07-29T15:27:16;2.65;;;1.70;;
23539;SDS011;11947;50.810;4.394;2023-07-29T15:29:42;2.92;;;1.70;;
23539;SDS011;11947;50.810;4.394;2023-07-29T15:32:07;2.03;;;1.50;;
23539;SDS011;11947;50.810;4.394;2023-07-29T15:34:33;2.88;;;1.70;;
23539;SDS011;11947;50.810;4.394;2023-07-29T15:36:59;4.47;;;1.40;;
23539;SDS011;11947;50.810;4.394;2023-07-29T15:39:25;2.15;;;1.50;;
23539;SDS011;11947;50.810;4.394;2023-07-29T15:41:50;1.50;;;1.30;;
23539;SDS011;11947;50.810;4.394;2023-07-29T15:44:17;1.70;;;1.60;;
23539;SDS011;11947;50.810;4.394;2023-07-29T15:46:42;2.55;;;1.48;;
23539;SDS011;11947;50.810;4.394;2023-07-29T15:49:08;2.80;;;1.67;;
23539;SDS011;11947;50.810;4.394;2023-07-29T15:51:34;1.95;;;1.60;;
23539;SDS011;11947;50.810;4.394;2023-07-29T15:54:00;3.15;;;1.50;;
23539;SDS011;11947;50.810;4.394;2023-07-29T15:56:27;2.35;;;1.45;;
23539;SDS011;11947;50.810;4.394;2023-07-29T15:58:53;1.70;;;1.40;;
23539;SDS011;11947;50.810;4.394;2023-07-29T16:01:19;2.05;;;1.50;;
23539;SDS011;11947;50.810;4.394;2023-07-29T16:03:46;2.08;;;1.52;;
23539;SDS011;11947;50.810;4.394;2023-07-29T16:06:11;1.77;;;1.42;;
23539;SDS011;11947;50.810;4.394;2023-07-29T16:08:37;2.20;;;1.85;;
23539;SDS011;11947;50.810;4.394;2023-07-29T16:11:02;2.05;;;1.85;;
23539;SDS011;11947;50.810;4.394;2023-07-29T16:13:28;1.70;;;1.60;;
23539;SDS011;11947;50.810;4.394;2023-07-29T16:15:53;2.95;;;2.00;;
23539;SDS011;11947;50.810;4.394;2023-07-29T16:18:19;2.60;;;1.90;;
23539;SDS011;11947;50.810;4.394;2023-07-29T16:20:45;2.63;;;1.90;;
23539;SDS011;11947;50.810;4.394;2023-07-29T16:23:11;2.20;;;1.98;;
23539;SDS011;11947;50.810;4.394;2023-07-29T16:25:37;2.42;;;2.22;;
23539;SDS011;11947;50.810;4.394;2023-07-29T16:28:02;2.38;;;2.08;;
23539;SDS011;11947;50.810;4.394;2023-07-29T16:30:28;2.53;;;2.30;;
23539;SDS011;11947;50.810;4.394;2023-07-29T16:32:54;2.40;;;2.17;;
23539;SDS011;11947;50.810;4.394;2023-07-29T16:35:19;2.95;;;2.17;;
23539;SDS011;11947;50.810;4.394;2023-07-29T16:37:45;4.18;;;2.28;;
23539;SDS011;11947;50.810;4.394;2023-07-29T16:40:11;2.40;;;2.20;;
23539;SDS011;11947;50.810;4.394;2023-07-29T16:42:37;2.20;;;2.00;;
23539;SDS011;11947;50.810;4.394;2023-07-29T16:45:03;2.20;;;2.00;;
23539;SDS011;11947;50.810;4.394;2023-07-29T16:47:29;3.38;;;1.98;;
23539;SDS011;11947;50.810;4.394;2023-07-29T16:49:54;3.92;;;2.08;;
23539;SDS011;11947;50.810;4.394;2023-07-29T16:52:20;2.13;;;1.75;;
23539;SDS011;11947;50.810;4.394;2023-07-29T16:54:47;3.33;;;1.90;;
23539;SDS011;11947;50.810;4.394;2023-07-29T16:57:12;3.17;;;1.70;;
23539;SDS011;11947;50.810;4.394;2023-07-29T16:59:38;2.38;;;1.80;;
23539;SDS011;11947;50.810;4.394;2023-07-29T17:02:04;2.85;;;1.63;;
23539;SDS011;11947;50.810;4.394;2023-07-29T17:04:31;2.70;;;1.73;;
23539;SDS011;11947;50.810;4.394;2023-07-29T17:06:57;3.15;;;2.15;;
23539;SDS011;11947;50.810;4.394;2023-07-29T17:09:23;2.80;;;1.80;;
23539;SDS011;11947;50.810;4.394;2023-07-29T17:11:49;4.32;;;1.98;;
23539;SDS011;11947;50.810;4.394;2023-07-29T17:14:14;3.92;;;2.10;;
23539;SDS011;11947;50.810;4.394;2023-07-29T17:16:40;8.15;;;2.15;;
23539;SDS011;11947;50.810;4.394;2023-07-29T17:19:05;6.63;;;2.40;;
23539;SDS011;11947;50.810;4.394;2023-07-29T17:21:31;2.95;;;1.83;;
23539;SDS011;11947;50.810;4.394;2023-07-29T17:23:57;4.70;;;2.30;;
23539;SDS011;11947;50.810;4.394;2023-07-29T17:26:22;4.65;;;2.15;;
23539;SDS011;11947;50.810;4.394;2023-07-29T17:28:48;5.78;;;2.80;;
23539;SDS011;11947;50.810;4.394;2023-07-29T17:31:14;3.97;;;2.10;;
23539;SDS011;11947;50.810;4.394;2023-07-29T17:33:39;3.40;;;2.00;;